Terminal Aerodrome Forecast
Issued by NWS

Home | Current Version | Previous Version | Text Only | Print | Product List | Glossary On
Versions: 1 2 3 4 5 6 7 8 9 10 11 12 13 14 15 16 17 18 19 20 21 22 23 24 25 26 27 28 29 30 31 32 33 34 35 36 37 38 39 40
000
FTUS45 KBOU 041724
TAFBJC
TAF
KBJC 041724Z 0418/0518 VRB06KT P6SM FEW100 SCT150
     FM042100 13006KT P6SM VCSH SCT080 BKN120
      TEMPO 0423/0502 VRB12G25KT -SHRA BKN080
     FM050200 31010KT P6SM SCT100 BKN150
     FM050600 17008KT P6SM FEW120 BKN180
     FM051400 26007KT P6SM SCT100 BKN160
     FM051700 VRB06KT P6SM SCT120 BKN200=

USA.gov is the U.S. government's official web portal to all federal, state and local government web resources and services.